Time;durP1;ratioP1;P1;durP2;ratioP2;P2;SDS_P1;SDS_P2;PMS_P1;PMS_P2;Temp;Humidity;BMP_temperature;BMP_pressure;BME280_temperature;BME280_humidity;BME280_pressure;Samples;Min_cycle;Max_cycle;Signal;HPM_P1;HPM_P2
2021/12/24 00:01:00;;;;;;;52.38;29.55;;;;;;;4.82;70.35;101635.09;5030853;28;20083;-61
2021/12/24 00:03:27;;;;;;;51.50;29.65;;;;;;;4.84;70.23;101629.91;5032018;28;20045;-61
2021/12/24 00:05:54;;;;;;;51.55;29.30;;;;;;;4.84;70.39;101628.16;5033896;28;20132;-61
2021/12/24 00:08:21;;;;;;;54.70;30.55;;;;;;;4.85;70.38;101618.59;5033411;28;20492;-61
2021/12/24 00:10:57;;;;;;;52.13;30.17;;;;;;;4.84;70.41;101614.28;5033745;28;20050;-61
2021/12/24 00:13:23;;;;;;;;;;;;;;;4.84;70.50;101603.91;5033223;28;20041;-61
2021/12/24 00:16:02;;;;;;;50.20;29.55;;;;;;;4.86;70.37;101597.78;5033640;28;19928;-61
2021/12/24 00:18:40;;;;;;;54.40;31.58;;;;;;;4.88;70.46;101600.34;5033568;28;20053;-61
2021/12/24 00:37:16;;;;;;;55.40;30.77;;;;;;;4.85;70.54;101589.97;5032950;28;20171;-61
2021/12/24 00:40:05;;;;;;;53.13;30.33;;;;;;;4.86;70.55;101586.50;5033254;28;20047;-61
2021/12/24 00:42:33;;;;;;;56.58;31.45;;;;;;;4.86;70.34;101586.50;5033204;28;20085;-61
2021/12/24 00:45:00;;;;;;;52.70;29.83;;;;;;;4.85;70.47;101584.78;5032151;28;20064;-61
2021/12/24 00:47:27;;;;;;;59.05;30.88;;;;;;;4.87;70.78;101583.88;5033136;28;20091;-61
2021/12/24 00:49:54;;;;;;;59.47;31.40;;;;;;;4.92;70.33;101598.53;5033053;28;20468;-61
2021/12/24 00:55:09;;;;;;;56.53;31.50;;;;;;;4.90;70.35;101590.75;5032748;28;20052;-61
2021/12/24 00:57:39;;;;;;;57.38;32.25;;;;;;;4.90;70.12;101583.81;5032519;28;20049;-61
2021/12/24 01:00:21;;;;;;;54.35;30.95;;;;;;;4.92;70.07;101586.38;5031939;28;20053;-61
2021/12/24 01:02:49;;;;;;;49.75;29.30;;;;;;;4.89;70.06;101596.84;5032636;28;20049;-61
2021/12/24 01:05:17;;;;;;;55.53;31.83;;;;;;;4.86;69.96;101587.38;5032880;28;20065;-61
2021/12/24 01:07:49;;;;;;;56.70;32.00;;;;;;;4.85;69.83;101576.97;5032536;28;20501;-61
2021/12/24 01:10:20;;;;;;;54.67;30.38;;;;;;;4.89;69.97;101578.66;5032630;28;20045;-61
2021/12/24 01:12:47;;;;;;;56.00;31.42;;;;;;;4.89;69.78;101591.66;5032695;28;20042;-61
2021/12/24 01:15:15;;;;;;;56.33;30.70;;;;;;;4.88;69.78;101584.75;5031613;28;20052;-61
2021/12/24 01:21:14;;;;;;;55.33;32.10;;;;;;;4.87;69.71;101583.03;5032505;28;20046;-61
2021/12/24 01:25:51;;;;;;;52.65;29.55;;;;;;;4.86;69.56;101584.78;5032397;28;20037;-61
2021/12/24 01:44:54;;;;;;;51.53;29.70;;;;;;;4.85;69.50;101570.06;5032114;28;20548;-61
2021/12/24 01:47:22;;;;;;;54.47;30.30;;;;;;;4.86;69.57;101571.78;5032465;28;20049;-61
2021/12/24 01:49:49;;;;;;;52.90;30.30;;;;;;;4.84;69.83;101560.53;5031151;28;20050;-60
2021/12/24 01:52:16;;;;;;;52.67;31.75;;;;;;;4.87;69.56;101557.00;5024322;28;20541;-61
2021/12/24 01:54:44;;;;;;;59.20;31.50;;;;;;;4.86;69.66;101565.69;5031836;28;20038;-61
2021/12/24 01:57:12;;;;;;;52.22;30.27;;;;;;;4.83;69.76;101558.81;5032104;28;20045;-61
2021/12/24 01:59:40;;;;;;;52.15;29.98;;;;;;;4.85;69.89;101570.06;5031977;28;20050;-61
2021/12/24 02:02:08;;;;;;;56.30;31.58;;;;;;;4.84;69.99;101562.28;5032060;28;20052;-61
2021/12/24 02:04:35;;;;;;;53.22;30.23;;;;;;;4.85;70.10;101561.38;5031825;28;20080;-61
2021/12/24 02:07:02;;;;;;;52.50;31.20;;;;;;;4.89;70.05;101553.50;5032725;28;20501;-61
2021/12/24 02:09:36;;;;;;;52.38;29.20;;;;;;;4.88;70.06;101554.38;5035303;28;20521;-61
2021/12/24 02:12:07;;;;;;;57.50;31.95;;;;;;;4.87;69.96;101550.06;5035088;28;20049;-61
2021/12/24 02:14:37;;;;;;;52.70;31.30;;;;;;;4.85;70.14;101541.44;5036139;28;20049;-61
2021/12/24 02:30:40;;;;;;;60.15;31.75;;;;;;;4.90;70.49;101505.81;5035713;28;20055;-61
2021/12/24 02:33:07;;;;;;;70.95;33.50;;;;;;;4.90;70.29;101515.31;5035862;28;20045;-62
2021/12/24 02:35:34;;;;;;;68.53;32.42;;;;;;;4.88;70.63;101511.91;5035590;28;20050;-61
2021/12/24 02:38:02;;;;;;;67.95;32.13;;;;;;;4.90;70.57;101515.31;5035464;28;20058;-61
2021/12/24 02:40:30;;;;;;;63.63;31.90;;;;;;;4.91;70.49;101509.25;5035700;28;20072;-62
2021/12/24 02:42:58;;;;;;;62.10;32.42;;;;;;;4.91;70.75;101514.44;5034416;28;20042;-61
2021/12/24 02:45:29;;;;;;;66.13;32.45;;;;;;;4.91;70.60;101493.63;5035542;28;20042;-61
2021/12/24 02:56:02;;;;;;;65.03;31.25;;;;;;;4.89;70.94;101480.69;5034860;28;20073;-61
2021/12/24 02:58:39;;;;;;;56.10;31.67;;;;;;;4.92;70.96;101464.16;5035300;28;20049;-61
2021/12/24 03:01:07;;;;;;;65.10;32.25;;;;;;;4.93;70.97;101458.06;5034122;28;20057;-61
2021/12/24 03:03:34;;;;;;;66.70;34.13;;;;;;;4.92;70.87;101461.56;5035134;28;20076;-61
2021/12/24 03:06:00;;;;;;;66.78;33.13;;;;;;;4.92;71.19;101495.34;5035083;28;20080;-61
2021/12/24 03:08:27;;;;;;;63.35;32.53;;;;;;;4.89;71.00;101488.47;5034813;28;20518;-61
2021/12/24 03:10:57;;;;;;;66.32;32.97;;;;;;;4.90;71.19;101471.13;5034974;28;20057;-61
2021/12/24 03:13:25;;;;;;;59.10;33.30;;;;;;;4.93;70.92;101493.59;5034907;28;20051;-62
2021/12/24 03:15:55;;;;;;;59.38;32.97;;;;;;;4.90;71.03;101489.31;5033935;28;20049;-61
2021/12/24 03:18:28;;;;;;;50.33;30.33;;;;;;;4.90;70.82;101474.59;5033855;28;20072;-61
2021/12/24 03:23:36;;;;;;;55.78;29.88;;;;;;;4.89;71.04;101459.88;5035017;28;20111;-61
2021/12/24 03:26:05;;;;;;;54.75;31.08;;;;;;;4.90;70.99;101468.50;5034728;28;20049;-61
2021/12/24 03:28:32;;;;;;;56.97;31.90;;;;;;;4.93;70.66;101478.00;5034891;28;20397;-61
2021/12/24 03:30:59;;;;;;;54.15;30.95;;;;;;;4.90;70.98;101472.00;5034363;28;20111;-61
2021/12/24 03:33:27;;;;;;;54.97;29.67;;;;;;;4.91;70.75;101465.03;5033706;28;20049;-61
2021/12/24 03:35:53;;;;;;;55.55;31.80;;;;;;;4.90;70.95;101463.31;5034412;28;20498;-61
2021/12/24 03:38:20;;;;;;;53.45;31.27;;;;;;;4.92;70.79;101461.56;5034183;28;20108;-61
2021/12/24 03:40:47;;;;;;;54.47;31.38;;;;;;;4.93;70.56;101472.78;5034262;28;20042;-61
2021/12/24 03:43:14;;;;;;;55.55;32.38;;;;;;;4.91;70.61;101475.44;5034363;28;20057;-61
2021/12/24 03:46:06;;;;;;;54.80;30.85;;;;;;;4.92;70.37;101463.31;5034281;28;20050;-61
2021/12/24 03:48:50;;;;;;;56.53;31.88;;;;;;;4.92;70.74;101458.94;5033730;28;20115;-61
2021/12/24 03:56:38;;;;;;;55.53;31.00;;;;;;;4.94;70.54;101456.31;5034162;28;20038;-61
2021/12/24 03:59:06;;;;;;;55.45;31.27;;;;;;;4.92;70.34;101464.16;5034117;28;20084;-61
2021/12/24 04:01:34;;;;;;;55.03;32.00;;;;;;;4.86;70.73;101478.16;5033867;28;20049;-61
2021/12/24 04:04:02;;;;;;;53.95;32.05;;;;;;;4.85;70.81;101468.63;5028782;28;20064;-61
2021/12/24 04:06:30;;;;;;;55.35;30.90;;;;;;;4.81;70.67;101463.50;5029402;28;20413;-61
2021/12/24 04:08:56;;;;;;;57.03;31.95;;;;;;;4.79;70.89;101467.91;5030412;28;20560;-61
2021/12/24 04:11:24;;;;;;;56.78;31.35;;;;;;;4.81;70.72;101472.19;5030644;28;20107;-61
2021/12/24 04:13:51;;;;;;;55.50;31.08;;;;;;;4.80;70.83;101469.59;5030392;28;20045;-61
2021/12/24 04:16:18;;;;;;;58.03;32.28;;;;;;;4.81;70.69;101469.59;5030820;28;20406;-62
2021/12/24 04:18:58;;;;;;;57.35;31.20;;;;;;;4.84;70.70;101463.47;5030140;28;20087;-61
2021/12/24 04:26:56;;;;;;;66.15;34.20;;;;;;;4.87;70.88;101453.00;5030302;28;20084;-61
2021/12/24 04:29:22;;;;;;;69.50;33.88;;;;;;;4.88;70.58;101452.94;5030331;28;20049;-63
2021/12/24 04:32:06;;;;;;;65.50;33.75;;;;;;;4.91;70.55;101452.03;5030099;28;20052;-63
2021/12/24 04:34:34;;;;;;;61.50;32.70;;;;;;;4.90;70.42;101447.72;5030238;28;20041;-63
2021/12/24 04:51:02;;;;;;;61.67;32.15;;;;;;;4.92;70.80;101443.34;5029812;28;20474;-64
2021/12/24 04:51:11;;;;;;;65.57;33.88;;;;;;;4.89;70.87;101427.81;5029902;28;20052;-63
2021/12/24 05:04:50;;;;;;;63.40;32.35;;;;;;;4.95;71.12;101417.28;5029488;28;20049;-63
2021/12/24 05:10:02;;;;;;;58.65;31.92;;;;;;;4.96;70.94;101410.31;5029164;28;19932;-63
2021/12/24 05:12:31;;;;;;;56.80;31.63;;;;;;;4.95;70.83;101408.59;5029478;28;20041;-63
2021/12/24 05:15:00;;;;;;;65.40;34.45;;;;;;;4.96;70.99;101411.16;5029193;28;20119;-63
2021/12/24 05:18:05;;;;;;;64.88;33.33;;;;;;;4.94;71.16;101407.75;5028383;28;20045;-61
2021/12/24 05:22:58;;;;;;;57.47;30.58;;;;;;;4.95;71.12;101388.69;5029150;28;20552;-61
2021/12/24 05:25:25;;;;;;;53.80;31.35;;;;;;;4.96;71.17;101405.13;5029101;28;20558;-61
2021/12/24 05:27:52;;;;;;;53.33;31.25;;;;;;;4.96;71.01;101392.13;5029021;28;20505;-61
2021/12/24 05:30:19;;;;;;;56.63;32.25;;;;;;;4.95;71.04;101374.81;5029811;28;20099;-61
2021/12/24 05:32:45;;;;;;;59.67;32.88;;;;;;;4.95;71.13;101378.28;5028037;28;20049;-61
2021/12/24 05:35:12;;;;;;;60.55;32.70;;;;;;;4.96;71.04;101392.13;5029400;28;20464;-61
2021/12/24 05:37:39;;;;;;;58.97;33.17;;;;;;;4.94;71.05;101381.75;5028782;28;20155;-63
2021/12/24 05:40:08;;;;;;;53.53;31.88;;;;;;;4.92;71.33;101372.28;5029164;28;20053;-61
2021/12/24 05:42:34;;;;;;;52.13;30.98;;;;;;;4.93;71.03;101367.03;5028255;28;20053;-61
2021/12/24 05:45:07;;;;;;;53.92;31.40;;;;;;;4.94;70.98;101379.16;5028822;28;20045;-61
2021/12/24 05:47:34;;;;;;;51.47;31.15;;;;;;;4.95;70.73;101385.19;5029122;28;20460;-61
2021/12/24 05:50:00;;;;;;;52.10;31.08;;;;;;;4.89;70.84;101370.59;5029019;28;20379;-61
2021/12/24 05:52:28;;;;;;;52.85;30.95;;;;;;;4.89;70.79;101375.81;5027782;28;20046;-61
2021/12/24 05:54:55;;;;;;;57.20;31.83;;;;;;;4.89;70.71;101375.81;5028694;28;20513;-61
2021/12/24 05:57:22;;;;;;;56.00;31.35;;;;;;;4.91;70.52;101384.41;5028906;28;20052;-61
2021/12/24 05:59:49;;;;;;;50.60;30.45;;;;;;;4.89;70.67;101384.47;5028804;28;20044;-61
2021/12/24 06:02:16;;;;;;;48.92;29.20;;;;;;;4.89;70.80;101381.00;5028961;28;20045;-61
2021/12/24 06:04:43;;;;;;;50.58;31.08;;;;;;;4.90;70.58;101374.91;5028657;28;20502;-62
2021/12/24 06:07:09;;;;;;;52.97;30.42;;;;;;;4.89;70.49;101373.22;5027402;28;20060;-63
2021/12/24 06:09:36;;;;;;;52.10;31.33;;;;;;;4.89;70.49;101388.81;5028603;28;20068;-61
2021/12/24 06:12:03;;;;;;;52.45;30.33;;;;;;;4.90;70.33;101380.09;5028565;28;20045;-61
2021/12/24 06:14:30;;;;;;;45.47;29.73;;;;;;;4.88;70.29;101384.50;5028901;28;20096;-61
2021/12/24 06:17:04;;;;;;;54.92;31.00;;;;;;;4.89;70.14;101376.66;5028495;28;20394;-61
2021/12/24 06:19:33;;;;;;;53.17;31.65;;;;;;;4.91;70.33;101387.00;5028829;28;20061;-61
2021/12/24 06:21:59;;;;;;;52.97;30.23;;;;;;;4.86;70.17;101378.47;5028410;28;20057;-61
2021/12/24 06:24:26;;;;;;;49.53;29.98;;;;;;;4.87;70.04;101381.03;5027593;28;20042;-61
2021/12/24 06:26:53;;;;;;;49.20;30.17;;;;;;;4.88;70.22;101374.94;5028438;28;20045;-61
2021/12/24 06:29:21;;;;;;;53.08;32.45;;;;;;;4.89;70.22;101374.06;5028471;28;20591;-61
2021/12/24 06:31:49;;;;;;;51.88;31.05;;;;;;;4.89;70.18;101368.00;5028421;28;20489;-61
2021/12/24 06:34:16;;;;;;;54.08;31.98;;;;;;;4.89;70.16;101368.84;5028483;28;20065;-61
2021/12/24 06:36:46;;;;;;;50.67;30.27;;;;;;;4.90;69.99;101361.88;5028172;28;20045;-61
2021/12/24 06:39:14;;;;;;;51.78;31.13;;;;;;;4.89;70.04;101355.00;5028200;28;20061;-61
2021/12/24 06:41:42;;;;;;;53.88;31.90;;;;;;;4.92;70.07;101362.72;5027254;28;20565;-61
2021/12/24 06:44:11;;;;;;;54.38;31.27;;;;;;;4.93;69.90;101372.25;5028411;28;20449;-61
2021/12/24 06:46:41;;;;;;;50.40;31.17;;;;;;;4.92;70.02;101380.09;5028349;28;20041;-61
2021/12/24 06:49:10;;;;;;;53.13;30.73;;;;;;;4.91;69.86;101387.00;5028061;28;20506;-62
2021/12/24 06:51:37;;;;;;;55.03;30.75;;;;;;;4.92;69.94;101387.88;5028205;28;20421;-61
2021/12/24 06:54:05;;;;;;;54.20;30.63;;;;;;;4.90;69.93;101388.78;5030733;28;20080;-61
2021/12/24 06:56:32;;;;;;;50.47;29.70;;;;;;;4.90;69.95;101393.09;5030871;28;20038;-61
2021/12/24 06:58:59;;;;;;;51.40;30.02;;;;;;;4.89;69.83;101387.06;5032109;28;20433;-61
2021/12/24 07:01:26;;;;;;;55.00;30.88;;;;;;;4.94;69.98;101394.75;5031712;28;20049;-61
2021/12/24 07:03:52;;;;;;;51.85;31.00;;;;;;;4.96;69.68;101379.97;5031892;28;20103;-61
2021/12/24 07:06:19;;;;;;;53.08;31.83;;;;;;;4.98;69.90;101375.59;5031562;28;20049;-61
2021/12/24 07:08:46;;;;;;;51.25;30.25;;;;;;;4.96;69.99;101387.75;5031853;28;20486;-61
2021/12/24 07:11:12;;;;;;;53.60;31.45;;;;;;;4.94;69.97;101399.97;5031672;28;20056;-61
2021/12/24 07:13:39;;;;;;;58.30;32.97;;;;;;;4.93;69.88;101413.84;5030409;28;20053;-61
2021/12/24 07:16:06;;;;;;;51.15;29.98;;;;;;;4.94;70.06;101422.50;5032038;28;20045;-61
2021/12/24 07:18:33;;;;;;;50.20;31.02;;;;;;;4.94;70.05;101415.56;5031698;28;20801;-61
2021/12/24 07:21:00;;;;;;;53.90;32.00;;;;;;;4.95;69.83;101422.50;5031425;28;20115;-61
2021/12/24 07:23:26;;;;;;;52.17;30.10;;;;;;;4.97;69.92;101418.09;5031310;28;20045;-61
2021/12/24 07:25:53;;;;;;;57.63;32.67;;;;;;;4.96;70.06;101429.38;5031120;28;20049;-61
2021/12/24 07:28:19;;;;;;;55.67;32.28;;;;;;;4.92;70.02;101432.09;5030336;28;20051;-61
2021/12/24 07:30:46;;;;;;;55.88;33.33;;;;;;;4.88;70.10;101424.34;5031244;28;20042;-61
2021/12/24 07:33:14;;;;;;;56.20;31.58;;;;;;;4.94;69.94;101422.50;5031473;28;20134;-61
2021/12/24 07:35:45;;;;;;;55.75;31.90;;;;;;;4.99;69.85;101423.25;5031156;28;20139;-61
2021/12/24 07:38:15;;;;;;;54.17;32.25;;;;;;;5.02;69.98;101408.44;5031154;28;20053;-61
2021/12/24 07:40:44;;;;;;;55.15;31.95;;;;;;;5.07;69.68;101395.34;5031006;28;20049;-61
2021/12/24 07:43:10;;;;;;;60.85;34.08;;;;;;;5.11;69.55;101389.16;5031111;28;20049;-61
2021/12/24 07:45:39;;;;;;;55.28;31.75;;;;;;;5.13;69.67;101383.91;5030088;28;20184;-61
2021/12/24 07:48:14;;;;;;;55.22;32.03;;;;;;;5.18;69.70;101376.84;5017471;28;20054;-60
2021/12/24 07:53:16;;;;;;;59.72;32.55;;;;;;;5.27;69.34;101358.44;5030837;28;20502;-60
2021/12/24 07:55:43;;;;;;;56.00;32.20;;;;;;;5.29;69.31;101367.03;5030879;28;20042;-60
2021/12/24 07:58:11;;;;;;;59.55;32.58;;;;;;;5.34;69.24;101353.94;5030702;28;20533;-60
2021/12/24 08:00:39;;;;;;;59.88;34.03;;;;;;;5.33;69.12;101350.47;5030797;28;20092;-60
2021/12/24 08:03:07;;;;;;;58.42;33.65;;;;;;;5.34;69.12;101359.13;5029723;28;20422;-62
2021/12/24 08:05:40;;;;;;;55.83;33.03;;;;;;;5.32;69.19;101369.59;5030266;28;20054;-61
2021/12/24 08:08:09;;;;;;;62.42;34.38;;;;;;;5.32;69.42;101366.13;5030656;28;20073;-61
2021/12/24 08:10:37;;;;;;;58.05;35.08;;;;;;;5.35;69.19;101372.09;5030630;28;20048;-60
2021/12/24 08:13:04;;;;;;;57.90;33.17;;;;;;;5.33;69.19;101365.22;5030484;28;20076;-60
2021/12/24 08:15:31;;;;;;;56.55;33.38;;;;;;;5.34;69.22;101364.34;5030537;28;20487;-60
2021/12/24 08:17:58;;;;;;;61.45;33.47;;;;;;;5.35;69.28;101356.47;5030428;28;20045;-60
2021/12/24 08:20:25;;;;;;;57.58;33.92;;;;;;;5.37;69.08;101366.84;5029669;28;20068;-59
2021/12/24 08:22:54;;;;;;;55.97;33.20;;;;;;;5.40;69.10;101366.78;5036500;28;20051;-59
2021/12/24 08:25:22;;;;;;;54.17;32.30;;;;;;;5.47;68.69;101354.47;5035302;28;20041;-60
2021/12/24 08:27:49;;;;;;;57.08;33.63;;;;;;;5.52;68.69;101350.00;5029039;28;20069;-60
2021/12/24 08:30:16;;;;;;;56.28;33.42;;;;;;;5.51;68.66;101340.47;5030580;28;20041;-60
2021/12/24 08:32:43;;;;;;;57.08;33.40;;;;;;;5.54;68.57;101345.63;5027675;28;20417;-60
2021/12/24 08:35:13;;;;;;;56.17;33.75;;;;;;;5.49;68.59;101330.09;5046319;28;20128;-60
2021/12/24 08:37:40;;;;;;;55.85;32.88;;;;;;;5.56;68.30;101333.41;5031714;28;20049;-59
2021/12/24 08:40:08;;;;;;;54.22;32.45;;;;;;;5.55;68.14;101329.09;5030069;28;20064;-59
2021/12/24 08:42:35;;;;;;;55.55;33.45;;;;;;;5.60;67.94;101332.44;5029818;28;20045;-60
2021/12/24 08:45:03;;;;;;;52.40;32.03;;;;;;;5.59;67.95;101330.72;5032466;28;20049;-59
2021/12/24 08:47:30;;;;;;;60.13;34.95;;;;;;;5.62;67.72;101335.00;5045465;28;20562;-59
2021/12/24 08:49:57;;;;;;;54.63;34.05;;;;;;;5.63;67.71;101340.16;5028727;28;20183;-60
2021/12/24 08:52:24;;;;;;;56.33;34.65;;;;;;;5.62;67.35;101325.44;5029470;28;20061;-60
2021/12/24 08:54:50;;;;;;;52.60;32.85;;;;;;;5.64;67.18;101323.66;5039681;28;20045;-60
2021/12/24 08:57:17;;;;;;;55.10;32.50;;;;;;;5.69;66.92;101310.53;5045181;28;20052;-60
2021/12/24 08:59:44;;;;;;;55.58;34.00;;;;;;;5.67;66.70;101314.91;5042774;28;20041;-60
2021/12/24 09:02:15;;;;;;;62.95;34.78;;;;;;;5.68;66.49;101312.25;5046516;28;20056;-60
2021/12/24 09:04:42;;;;;;;56.55;35.30;;;;;;;5.67;66.53;101313.13;5040463;28;20050;-60
2021/12/24 09:07:10;;;;;;;57.75;35.72;;;;;;;5.70;66.28;101302.66;5038122;28;20099;-60
2021/12/24 09:09:37;;;;;;;60.97;35.63;;;;;;;5.71;65.93;101299.16;5041527;28;20094;-59
2021/12/24 09:12:04;;;;;;;58.72;36.08;;;;;;;5.73;66.10;101309.53;5041166;28;20052;-60
2021/12/24 09:14:31;;;;;;;55.90;34.80;;;;;;;5.75;66.03;101304.28;5041860;28;20440;-60
2021/12/24 09:17:00;;;;;;;55.70;34.38;;;;;;;5.75;65.76;101299.91;5041254;28;20095;-59
2021/12/24 09:19:28;;;;;;;59.15;34.97;;;;;;;5.76;65.85;101311.19;5039836;28;20053;-59
2021/12/24 09:21:57;;;;;;;54.58;34.00;;;;;;;5.78;65.65;101309.41;5041612;28;20045;-60
2021/12/24 09:24:26;;;;;;;58.08;35.38;;;;;;;5.78;65.79;101307.66;5042182;28;20131;-60
2021/12/24 09:26:57;;;;;;;60.35;36.25;;;;;;;5.78;65.61;101291.19;5045253;28;20047;-60
2021/12/24 09:29:25;;;;;;;60.75;36.30;;;;;;;5.77;65.79;101305.94;5042781;28;20084;-60
2021/12/24 09:31:53;;;;;;;61.58;35.38;;;;;;;5.76;65.74;101301.63;5043180;28;20049;-59
2021/12/24 09:34:19;;;;;;;56.88;34.08;;;;;;;5.75;65.76;101299.06;5030031;28;20049;-59
2021/12/24 09:36:46;;;;;;;52.05;33.08;;;;;;;5.79;65.63;101298.09;5028386;28;20052;-60
2021/12/24 09:39:14;;;;;;;57.88;32.70;;;;;;;5.80;65.61;101294.59;5029034;28;20049;-60
2021/12/24 09:41:41;;;;;;;55.20;33.78;;;;;;;5.82;65.43;101301.47;5026812;28;20041;-60
2021/12/24 09:44:08;;;;;;;52.53;33.08;;;;;;;5.82;65.33;101305.81;5028493;28;20045;-60
2021/12/24 09:46:40;;;;;;;52.90;33.75;;;;;;;5.83;65.08;101316.19;5028796;28;20379;-60
2021/12/24 09:49:08;;;;;;;58.92;34.60;;;;;;;5.86;65.05;101321.31;5028820;28;20045;-62
2021/12/24 09:51:38;;;;;;;54.25;33.45;;;;;;;5.87;65.13;101314.38;5028579;28;20046;-60
2021/12/24 09:54:15;;;;;;;57.08;34.17;;;;;;;5.88;65.13;101319.53;5029036;28;20461;-59
2021/12/24 09:56:43;;;;;;;52.80;33.10;;;;;;;5.90;65.17;101319.47;5028670;28;20482;-60
2021/12/24 09:59:11;;;;;;;53.97;33.85;;;;;;;5.83;65.02;101324.00;5039470;28;20052;-59
2021/12/24 10:01:54;;;;;;;62.88;37.47;;;;;;;5.83;65.04;101307.53;5037076;28;20039;-59
2021/12/24 10:04:26;;;;;;;58.40;35.45;;;;;;;6.10;64.79;101305.91;5023118;28;20050;-60
2021/12/24 10:06:55;;;;;;;69.45;41.03;;;;;;;6.01;64.58;101314.84;5028316;28;20049;-60
2021/12/24 10:09:30;;;;;;;70.68;43.15;;;;;;;5.98;64.93;101316.66;5028620;28;20238;-60
2021/12/24 10:12:03;;;;;;;73.22;43.20;;;;;;;5.95;64.95;101312.38;5028441;28;20053;-60
2021/12/24 10:14:41;;;;;;;90.72;53.95;;;;;;;5.94;64.91;101300.28;5028587;28;20131;-59
2021/12/24 10:17:35;;;;;;;76.72;44.28;;;;;;;5.96;64.79;101293.25;5027457;28;20057;-60
2021/12/24 10:20:11;;;;;;;70.30;43.28;;;;;;;5.99;64.89;101290.63;5035746;28;20239;-59
2021/12/24 10:22:50;;;;;;;65.80;39.63;;;;;;;6.02;64.95;101285.31;5028211;28;20486;-60
2021/12/24 10:25:23;;;;;;;66.13;38.40;;;;;;;6.04;64.97;101274.81;5028555;28;20053;-60
2021/12/24 10:27:50;;;;;;;87.82;52.28;;;;;;;6.22;64.99;101286.47;5028537;28;20045;-59
2021/12/24 10:30:30;;;;;;;86.50;51.28;;;;;;;6.14;65.36;101284.06;5032467;28;20048;-59
2021/12/24 10:32:57;;;;;;;72.15;45.00;;;;;;;6.12;65.55;101278.06;5029175;28;20072;-60
2021/12/24 10:35:30;;;;;;;81.28;44.92;;;;;;;6.15;65.52;101271.94;5032739;28;20046;-60
2021/12/24 10:38:20;;;;;;;78.75;46.00;;;;;;;6.16;65.77;101265.81;5032103;28;20088;-60
2021/12/24 10:40:54;;;;;;;81.50;48.97;;;;;;;6.16;65.68;101269.25;5032112;28;20056;-60
2021/12/24 10:43:24;;;;;;;74.53;45.85;;;;;;;6.17;65.65;101262.28;5032405;28;20079;-60
2021/12/24 10:46:12;;;;;;;83.43;50.00;;;;;;;6.17;65.67;101265.78;5032139;28;20049;-59
2021/12/24 10:48:58;;;;;;;77.78;45.30;;;;;;;6.16;65.82;101265.81;5021960;28;20091;-60
2021/12/24 10:51:53;;;;;;;86.15;50.75;;;;;;;6.11;65.86;101260.72;5031894;28;20448;-60
2021/12/24 10:54:12;;;;;;;78.35;50.63;;;;;;;6.12;65.92;101257.22;5032179;28;20046;-60
2021/12/24 10:56:38;;;;;;;78.20;48.88;;;;;;;6.09;66.13;101256.47;5031914;28;20037;-60
2021/12/24 10:59:05;;;;;;;75.97;46.30;;;;;;;6.07;66.24;101259.13;5031934;28;20049;-60
2021/12/24 11:01:32;;;;;;;78.50;45.08;;;;;;;6.04;66.72;101257.47;5031999;28;20037;-60
2021/12/24 11:03:59;;;;;;;72.18;44.22;;;;;;;6.01;66.45;101254.94;5031828;28;20099;-60
2021/12/24 11:06:32;;;;;;;71.50;44.25;;;;;;;6.07;66.39;101258.25;5030424;28;20073;-60
2021/12/24 11:08:59;;;;;;;81.60;47.75;;;;;;;6.07;66.42;101260.84;5031712;28;20053;-60
2021/12/24 11:11:35;;;;;;;96.80;54.83;;;;;;;6.07;66.54;101253.03;5031996;28;20059;-61
2021/12/24 11:14:02;;;;;;;95.38;53.72;;;;;;;6.12;66.65;101243.34;5031548;28;20083;-60
2021/12/24 11:16:32;;;;;;;92.07;52.47;;;;;;;6.11;66.64;101247.72;5031586;28;20502;-60
2021/12/24 11:19:02;;;;;;;123.80;62.17;;;;;;;6.14;67.00;101250.22;5031286;28;20052;-61
2021/12/24 11:21:31;;;;;;;100.53;52.63;;;;;;;6.10;67.04;101243.38;5020910;28;20053;-60
2021/12/24 11:23:58;;;;;;;285.73;124.25;;;;;;;6.08;67.46;101232.16;5028541;28;20045;-60
2021/12/24 11:26:31;;;;;;;120.65;72.45;;;;;;;6.09;67.40;101227.81;5031672;28;20065;-60
2021/12/24 11:28:58;;;;;;;84.25;50.08;;;;;;;6.06;67.59;101220.94;5031192;28;20114;-60
2021/12/24 11:31:28;;;;;;;73.72;44.13;;;;;;;6.06;67.68;101223.53;5033711;28;20489;-60
2021/12/24 11:33:55;;;;;;;69.13;42.10;;;;;;;5.98;68.08;101223.78;5046694;28;20053;-59
2021/12/24 11:36:25;;;;;;;74.47;43.67;;;;;;;6.01;68.14;101221.06;5042858;28;20046;-60
2021/12/24 11:38:56;;;;;;;74.05;43.90;;;;;;;6.05;68.31;101216.63;5043204;28;20045;-59
2021/12/24 11:41:31;;;;;;;90.78;48.80;;;;;;;6.04;68.40;101218.38;5028094;28;20045;-59
2021/12/24 11:44:01;;;;;;;133.65;66.85;;;;;;;5.97;68.37;101209.00;5030614;28;20053;-60
2021/12/24 11:46:28;;;;;;;126.47;66.38;;;;;;;6.00;68.59;101208.94;5017819;28;20515;-59
2021/12/24 11:48:55;;;;;;;87.38;50.42;;;;;;;6.01;68.55;101202.00;5043317;28;20115;-59
2021/12/24 11:51:25;;;;;;;72.03;43.20;;;;;;;6.02;68.57;101191.50;5032607;28;20081;-60
2021/12/24 11:53:57;;;;;;;66.70;39.40;;;;;;;6.07;68.55;101191.38;5042469;28;20049;-60
2021/12/24 11:56:24;;;;;;;84.68;49.80;;;;;;;6.07;68.66;101180.97;5033652;28;20053;-59
2021/12/24 11:58:58;;;;;;;74.55;42.38;;;;;;;6.08;68.57;101176.59;5030678;28;20045;-62
2021/12/24 12:01:27;;;;;;;78.15;43.78;;;;;;;6.04;68.78;101171.50;5039021;28;20501;-60
2021/12/24 12:03:57;;;;;;;63.38;40.63;;;;;;;6.05;68.95;101167.97;5034995;28;20079;-60
2021/12/24 12:06:24;;;;;;;63.83;40.42;;;;;;;6.04;69.18;101170.63;5035728;28;20049;-59
2021/12/24 12:08:55;;;;;;;65.03;41.50;;;;;;;6.00;69.25;101166.41;5036411;28;20037;-59
2021/12/24 12:11:25;;;;;;;63.88;39.78;;;;;;;6.00;69.24;101169.84;5022268;28;20088;-59
2021/12/24 12:14:21;;;;;;;65.93;41.25;;;;;;;5.97;69.57;101158.66;5029235;28;20053;-59
2021/12/24 12:16:56;;;;;;;75.53;47.25;;;;;;;5.98;69.70;101176.88;5024777;28;20067;-60
2021/12/24 12:19:29;;;;;;;76.35;45.40;;;;;;;5.93;70.06;101185.69;5040993;28;20494;-61
2021/12/24 12:25:09;;;;;;;74.32;42.78;;;;;;;5.92;70.28;101170.94;5031480;28;20111;-60
2021/12/24 12:27:44;;;;;;;68.32;43.20;;;;;;;5.85;70.64;101172.91;5030868;28;20057;-59
2021/12/24 12:30:28;;;;;;;71.40;42.95;;;;;;;5.95;70.36;101153.47;5036849;28;20059;-60
2021/12/24 12:33:19;;;;;;;115.05;60.13;;;;;;;6.05;71.43;101148.88;5024010;28;20042;-59
2021/12/24 12:35:58;;;;;;;192.48;104.72;;;;;;;6.84;70.00;101147.19;5031821;28;20049;-59
2021/12/24 12:38:35;;;;;;;97.93;56.83;;;;;;;6.40;71.05;101153.88;5019976;28;20528;-61
2021/12/24 12:41:22;;;;;;;80.93;48.53;;;;;;;6.33;71.49;101148.00;5030131;28;20494;-59
2021/12/24 12:43:51;;;;;;;72.25;43.92;;;;;;;6.28;71.21;101142.09;5030860;28;20045;-59
2021/12/24 12:46:32;;;;;;;73.07;43.70;;;;;;;6.21;71.19;101138.84;5028403;28;20152;-59
2021/12/24 12:49:04;;;;;;;70.50;42.33;;;;;;;6.09;71.39;101136.63;5030138;28;20060;-60
2021/12/24 12:51:58;;;;;;;72.70;43.20;;;;;;;6.06;71.84;101137.56;5029527;28;20132;-59
2021/12/24 12:54:38;;;;;;;73.28;42.97;;;;;;;6.01;71.95;101147.28;5029571;28;20049;-59
2021/12/24 12:57:10;;;;;;;78.55;48.83;;;;;;;5.99;71.81;101144.72;5031034;28;20444;-60
2021/12/24 12:59:37;;;;;;;81.18;50.08;;;;;;;5.97;71.67;101135.22;5029340;28;20057;-59
2021/12/24 13:02:04;;;;;;;81.28;48.90;;;;;;;5.98;71.71;101137.81;5030168;28;20045;-59
2021/12/24 13:04:31;;;;;;;85.00;47.72;;;;;;;5.97;71.98;101143.03;5028228;28;20055;-60
2021/12/24 13:06:58;;;;;;;86.95;50.20;;;;;;;5.94;72.13;101141.38;5028661;28;20045;-60
2021/12/24 13:09:35;;;;;;;95.47;52.63;;;;;;;5.94;72.07;101136.19;5038665;28;20514;-60
2021/12/24 13:12:03;;;;;;;82.82;46.60;;;;;;;5.95;72.11;101124.81;5017782;28;20103;-60
2021/12/24 13:14:32;;;;;;;75.07;45.60;;;;;;;5.94;72.21;101114.47;5029448;28;20049;-60
2021/12/24 13:22:27;;;;;;;85.60;50.28;;;;;;;5.99;72.29;101120.41;5027707;28;20041;-60
2021/12/24 13:25:06;;;;;;;98.05;54.00;;;;;;;5.93;72.22;101124.03;5039816;28;20049;-60